sensor_id;sensor_type;location;lat;lon;timestamp;P1;durP1;ratioP1;P2;durP2;ratioP2
55728;SDS011;41633;39.720;2.910;2023-02-26T00:00:59;29.02;;;21.27;;
55728;SDS011;41633;39.720;2.910;2023-02-26T00:03:25;27.08;;;18.83;;
55728;SDS011;41633;39.720;2.910;2023-02-26T00:05:52;22.67;;;15.18;;
55728;SDS011;41633;39.720;2.910;2023-02-26T00:08:18;29.58;;;21.65;;
55728;SDS011;41633;39.720;2.910;2023-02-26T00:10:44;25.83;;;18.65;;
55728;SDS011;41633;39.720;2.910;2023-02-26T00:13:10;25.63;;;18.10;;
55728;SDS011;41633;39.720;2.910;2023-02-26T00:15:36;22.60;;;16.20;;
55728;SDS011;41633;39.720;2.910;2023-02-26T00:18:05;20.05;;;13.35;;
55728;SDS011;41633;39.720;2.910;2023-02-26T00:20:32;21.85;;;13.85;;
55728;SDS011;41633;39.720;2.910;2023-02-26T00:25:24;18.75;;;12.10;;
55728;SDS011;41633;39.720;2.910;2023-02-26T00:27:50;24.92;;;18.33;;
55728;SDS011;41633;39.720;2.910;2023-02-26T00:30:17;21.15;;;14.20;;
55728;SDS011;41633;39.720;2.910;2023-02-26T00:32:44;22.73;;;14.60;;
55728;SDS011;41633;39.720;2.910;2023-02-26T00:35:11;18.02;;;11.15;;
55728;SDS011;41633;39.720;2.910;2023-02-26T00:38:11;16.65;;;9.80;;
55728;SDS011;41633;39.720;2.910;2023-02-26T00:40:34;16.05;;;9.73;;
55728;SDS011;41633;39.720;2.910;2023-02-26T00:43:05;14.60;;;8.88;;
55728;SDS011;41633;39.720;2.910;2023-02-26T00:45:31;16.40;;;9.32;;
55728;SDS011;41633;39.720;2.910;2023-02-26T00:48:11;19.15;;;11.43;;
55728;SDS011;41633;39.720;2.910;2023-02-26T00:50:44;17.85;;;9.13;;
55728;SDS011;41633;39.720;2.910;2023-02-26T00:53:23;15.40;;;9.50;;
55728;SDS011;41633;39.720;2.910;2023-02-26T00:55:51;21.00;;;13.93;;
55728;SDS011;41633;39.720;2.910;2023-02-26T00:58:17;23.77;;;15.25;;
55728;SDS011;41633;39.720;2.910;2023-02-26T01:00:44;18.90;;;12.70;;
55728;SDS011;41633;39.720;2.910;2023-02-26T01:03:10;16.27;;;9.80;;
55728;SDS011;41633;39.720;2.910;2023-02-26T01:05:36;12.85;;;6.88;;
55728;SDS011;41633;39.720;2.910;2023-02-26T01:10:38;13.73;;;5.57;;
55728;SDS011;41633;39.720;2.910;2023-02-26T01:13:04;10.70;;;4.55;;
55728;SDS011;41633;39.720;2.910;2023-02-26T01:15:31;11.07;;;4.38;;
55728;SDS011;41633;39.720;2.910;2023-02-26T01:17:59;10.30;;;3.78;;
55728;SDS011;41633;39.720;2.910;2023-02-26T01:20:32;8.73;;;3.92;;
55728;SDS011;41633;39.720;2.910;2023-02-26T01:23:03;9.27;;;3.63;;
55728;SDS011;41633;39.720;2.910;2023-02-26T01:28:03;8.27;;;3.58;;
55728;SDS011;41633;39.720;2.910;2023-02-26T01:30:30;11.68;;;4.60;;
55728;SDS011;41633;39.720;2.910;2023-02-26T01:35:27;10.27;;;5.25;;
55728;SDS011;41633;39.720;2.910;2023-02-26T01:38:08;9.23;;;4.65;;
55728;SDS011;41633;39.720;2.910;2023-02-26T01:43:18;9.65;;;3.70;;
55728;SDS011;41633;39.720;2.910;2023-02-26T01:45:54;10.00;;;3.80;;
55728;SDS011;41633;39.720;2.910;2023-02-26T01:51:18;9.05;;;3.63;;
55728;SDS011;41633;39.720;2.910;2023-02-26T01:53:44;10.50;;;3.70;;
55728;SDS011;41633;39.720;2.910;2023-02-26T01:56:14;9.82;;;4.35;;
55728;SDS011;41633;39.720;2.910;2023-02-26T01:58:41;9.88;;;4.15;;
55728;SDS011;41633;39.720;2.910;2023-02-26T02:01:08;8.93;;;3.80;;
55728;SDS011;41633;39.720;2.910;2023-02-26T02:03:35;9.25;;;4.05;;
55728;SDS011;41633;39.720;2.910;2023-02-26T02:06:05;8.70;;;4.15;;
55728;SDS011;41633;39.720;2.910;2023-02-26T02:08:33;9.18;;;3.88;;
55728;SDS011;41633;39.720;2.910;2023-02-26T02:11:00;8.52;;;3.85;;
55728;SDS011;41633;39.720;2.910;2023-02-26T02:13:35;10.80;;;3.85;;
55728;SDS011;41633;39.720;2.910;2023-02-26T02:18:43;10.40;;;4.97;;
55728;SDS011;41633;39.720;2.910;2023-02-26T02:30:21;9.82;;;4.10;;
55728;SDS011;41633;39.720;2.910;2023-02-26T02:32:26;10.93;;;4.50;;
55728;SDS011;41633;39.720;2.910;2023-02-26T02:34:57;8.57;;;3.80;;
55728;SDS011;41633;39.720;2.910;2023-02-26T02:37:33;10.25;;;4.30;;
55728;SDS011;41633;39.720;2.910;2023-02-26T02:40:03;10.43;;;4.65;;
55728;SDS011;41633;39.720;2.910;2023-02-26T02:42:31;10.05;;;4.53;;
55728;SDS011;41633;39.720;2.910;2023-02-26T02:45:00;9.43;;;4.38;;
55728;SDS011;41633;39.720;2.910;2023-02-26T02:47:29;9.30;;;4.10;;
55728;SDS011;41633;39.720;2.910;2023-02-26T02:53:02;8.40;;;3.70;;
55728;SDS011;41633;39.720;2.910;2023-02-26T02:55:35;9.57;;;4.07;;
55728;SDS011;41633;39.720;2.910;2023-02-26T02:58:07;9.05;;;3.78;;
55728;SDS011;41633;39.720;2.910;2023-02-26T03:00:38;8.30;;;3.50;;
55728;SDS011;41633;39.720;2.910;2023-02-26T03:05:38;10.23;;;4.43;;
55728;SDS011;41633;39.720;2.910;2023-02-26T03:08:05;10.77;;;4.25;;
55728;SDS011;41633;39.720;2.910;2023-02-26T03:10:33;9.05;;;3.90;;
55728;SDS011;41633;39.720;2.910;2023-02-26T03:12:59;10.05;;;4.05;;
55728;SDS011;41633;39.720;2.910;2023-02-26T03:26:28;10.50;;;4.63;;
55728;SDS011;41633;39.720;2.910;2023-02-26T03:28:56;12.05;;;4.90;;
55728;SDS011;41633;39.720;2.910;2023-02-26T03:31:29;11.27;;;5.05;;
55728;SDS011;41633;39.720;2.910;2023-02-26T03:34:07;12.82;;;6.40;;
55728;SDS011;41633;39.720;2.910;2023-02-26T03:39:30;10.18;;;4.35;;
55728;SDS011;41633;39.720;2.910;2023-02-26T03:41:59;11.93;;;4.70;;
55728;SDS011;41633;39.720;2.910;2023-02-26T03:44:30;13.55;;;4.85;;
55728;SDS011;41633;39.720;2.910;2023-02-26T03:46:58;11.75;;;4.47;;
55728;SDS011;41633;39.720;2.910;2023-02-26T03:49:31;8.93;;;3.88;;
55728;SDS011;41633;39.720;2.910;2023-02-26T03:51:58;10.27;;;3.60;;
55728;SDS011;41633;39.720;2.910;2023-02-26T03:54:27;11.55;;;4.20;;
55728;SDS011;41633;39.720;2.910;2023-02-26T03:56:55;9.55;;;4.22;;
55728;SDS011;41633;39.720;2.910;2023-02-26T03:59:22;8.57;;;3.30;;
55728;SDS011;41633;39.720;2.910;2023-02-26T04:04:29;9.13;;;3.90;;
55728;SDS011;41633;39.720;2.910;2023-02-26T04:06:57;7.85;;;3.10;;
55728;SDS011;41633;39.720;2.910;2023-02-26T04:09:23;13.07;;;3.03;;
55728;SDS011;41633;39.720;2.910;2023-02-26T04:11:50;10.13;;;3.42;;
55728;SDS011;41633;39.720;2.910;2023-02-26T04:14:18;12.50;;;3.60;;
55728;SDS011;41633;39.720;2.910;2023-02-26T04:16:45;10.85;;;3.45;;
55728;SDS011;41633;39.720;2.910;2023-02-26T04:19:11;11.55;;;4.10;;
55728;SDS011;41633;39.720;2.910;2023-02-26T04:21:38;12.80;;;5.07;;
55728;SDS011;41633;39.720;2.910;2023-02-26T04:24:04;13.48;;;6.53;;
55728;SDS011;41633;39.720;2.910;2023-02-26T04:26:30;11.57;;;4.90;;
55728;SDS011;41633;39.720;2.910;2023-02-26T04:28:57;12.20;;;5.38;;
55728;SDS011;41633;39.720;2.910;2023-02-26T04:31:23;13.68;;;5.63;;
55728;SDS011;41633;39.720;2.910;2023-02-26T04:33:49;12.30;;;5.18;;
55728;SDS011;41633;39.720;2.910;2023-02-26T04:36:15;13.95;;;6.05;;
55728;SDS011;41633;39.720;2.910;2023-02-26T04:38:41;13.18;;;5.05;;
55728;SDS011;41633;39.720;2.910;2023-02-26T04:43:34;10.43;;;3.70;;
55728;SDS011;41633;39.720;2.910;2023-02-26T04:46:02;8.90;;;3.20;;
55728;SDS011;41633;39.720;2.910;2023-02-26T04:50:54;10.23;;;3.25;;
55728;SDS011;41633;39.720;2.910;2023-02-26T04:53:20;8.77;;;2.70;;
55728;SDS011;41633;39.720;2.910;2023-02-26T04:55:47;7.68;;;2.55;;
55728;SDS011;41633;39.720;2.910;2023-02-26T04:58:13;6.50;;;2.28;;
55728;SDS011;41633;39.720;2.910;2023-02-26T05:00:39;7.05;;;2.47;;
55728;SDS011;41633;39.720;2.910;2023-02-26T05:03:06;9.52;;;2.65;;
55728;SDS011;41633;39.720;2.910;2023-02-26T05:05:34;10.25;;;3.10;;
55728;SDS011;41633;39.720;2.910;2023-02-26T05:08:00;10.13;;;2.58;;
55728;SDS011;41633;39.720;2.910;2023-02-26T05:10:26;9.38;;;2.75;;
55728;SDS011;41633;39.720;2.910;2023-02-26T05:12:53;9.40;;;2.38;;
55728;SDS011;41633;39.720;2.910;2023-02-26T05:15:19;7.95;;;2.35;;
55728;SDS011;41633;39.720;2.910;2023-02-26T05:17:46;7.85;;;2.30;;
55728;SDS011;41633;39.720;2.910;2023-02-26T05:20:12;7.28;;;2.20;;
55728;SDS011;41633;39.720;2.910;2023-02-26T05:22:39;7.07;;;2.22;;
55728;SDS011;41633;39.720;2.910;2023-02-26T05:25:07;8.30;;;2.40;;
55728;SDS011;41633;39.720;2.910;2023-02-26T05:27:33;7.50;;;2.45;;
55728;SDS011;41633;39.720;2.910;2023-02-26T05:32:26;8.65;;;3.42;;
55728;SDS011;41633;39.720;2.910;2023-02-26T05:34:52;7.82;;;3.10;;
55728;SDS011;41633;39.720;2.910;2023-02-26T05:37:18;10.38;;;3.13;;
55728;SDS011;41633;39.720;2.910;2023-02-26T05:39:45;8.05;;;2.70;;
55728;SDS011;41633;39.720;2.910;2023-02-26T05:42:11;7.03;;;2.38;;
55728;SDS011;41633;39.720;2.910;2023-02-26T05:44:37;7.32;;;2.38;;
55728;SDS011;41633;39.720;2.910;2023-02-26T05:47:03;7.03;;;2.10;;
55728;SDS011;41633;39.720;2.910;2023-02-26T05:49:29;7.55;;;2.00;;
55728;SDS011;41633;39.720;2.910;2023-02-26T05:51:55;6.70;;;1.92;;
55728;SDS011;41633;39.720;2.910;2023-02-26T05:54:22;7.25;;;2.30;;
55728;SDS011;41633;39.720;2.910;2023-02-26T05:56:48;6.07;;;2.03;;
55728;SDS011;41633;39.720;2.910;2023-02-26T05:59:14;8.25;;;2.08;;
55728;SDS011;41633;39.720;2.910;2023-02-26T06:01:41;8.00;;;2.20;;
55728;SDS011;41633;39.720;2.910;2023-02-26T06:04:07;6.85;;;1.88;;
55728;SDS011;41633;39.720;2.910;2023-02-26T06:06:33;6.75;;;2.00;;
55728;SDS011;41633;39.720;2.910;2023-02-26T06:09:00;7.80;;;2.13;;
55728;SDS011;41633;39.720;2.910;2023-02-26T06:13:52;7.50;;;2.08;;
55728;SDS011;41633;39.720;2.910;2023-02-26T06:16:18;9.02;;;2.03;;
55728;SDS011;41633;39.720;2.910;2023-02-26T06:18:45;10.02;;;2.47;;
55728;SDS011;41633;39.720;2.910;2023-02-26T06:23:37;7.88;;;2.00;;
55728;SDS011;41633;39.720;2.910;2023-02-26T06:26:04;6.63;;;2.00;;
55728;SDS011;41633;39.720;2.910;2023-02-26T06:28:30;7.85;;;1.65;;
55728;SDS011;41633;39.720;2.910;2023-02-26T06:30:56;11.13;;;2.22;;
55728;SDS011;41633;39.720;2.910;2023-02-26T06:33:23;6.63;;;2.00;;
55728;SDS011;41633;39.720;2.910;2023-02-26T06:35:49;6.45;;;2.40;;
55728;SDS011;41633;39.720;2.910;2023-02-26T06:40:41;12.00;;;3.38;;
55728;SDS011;41633;39.720;2.910;2023-02-26T06:43:07;10.15;;;2.97;;
55728;SDS011;41633;39.720;2.910;2023-02-26T06:45:33;9.30;;;2.83;;
55728;SDS011;41633;39.720;2.910;2023-02-26T06:48:00;8.80;;;2.53;;
55728;SDS011;41633;39.720;2.910;2023-02-26T06:50:26;8.82;;;2.80;;
55728;SDS011;41633;39.720;2.910;2023-02-26T06:52:52;10.27;;;2.58;;
55728;SDS011;41633;39.720;2.910;2023-02-26T06:55:19;8.55;;;2.45;;
55728;SDS011;41633;39.720;2.910;2023-02-26T06:57:54;8.20;;;2.17;;
55728;SDS011;41633;39.720;2.910;2023-02-26T07:00:21;8.80;;;2.30;;
55728;SDS011;41633;39.720;2.910;2023-02-26T07:02:48;7.50;;;2.20;;
55728;SDS011;41633;39.720;2.910;2023-02-26T07:05:14;10.68;;;2.45;;
55728;SDS011;41633;39.720;2.910;2023-02-26T07:07:40;9.40;;;2.30;;
55728;SDS011;41633;39.720;2.910;2023-02-26T07:10:07;6.32;;;2.35;;
55728;SDS011;41633;39.720;2.910;2023-02-26T07:12:33;8.52;;;2.30;;
55728;SDS011;41633;39.720;2.910;2023-02-26T07:15:00;7.07;;;2.28;;
55728;SDS011;41633;39.720;2.910;2023-02-26T07:17:26;8.50;;;2.42;;
55728;SDS011;41633;39.720;2.910;2023-02-26T07:19:52;8.75;;;2.42;;
55728;SDS011;41633;39.720;2.910;2023-02-26T07:22:18;8.95;;;2.97;;
55728;SDS011;41633;39.720;2.910;2023-02-26T07:24:45;9.52;;;3.17;;
55728;SDS011;41633;39.720;2.910;2023-02-26T07:27:11;9.38;;;3.28;;
55728;SDS011;41633;39.720;2.910;2023-02-26T07:29:37;10.32;;;3.88;;
55728;SDS011;41633;39.720;2.910;2023-02-26T07:32:04;8.43;;;3.78;;
55728;SDS011;41633;39.720;2.910;2023-02-26T07:36:56;10.90;;;4.03;;
55728;SDS011;41633;39.720;2.910;2023-02-26T07:39:23;11.32;;;3.85;;
55728;SDS011;41633;39.720;2.910;2023-02-26T07:44:15;10.73;;;4.57;;
55728;SDS011;41633;39.720;2.910;2023-02-26T07:46:41;11.75;;;5.15;;
55728;SDS011;41633;39.720;2.910;2023-02-26T07:49:08;12.82;;;4.90;;
55728;SDS011;41633;39.720;2.910;2023-02-26T07:51:34;9.35;;;3.63;;
55728;SDS011;41633;39.720;2.910;2023-02-26T07:54:01;10.80;;;3.80;;
55728;SDS011;41633;39.720;2.910;2023-02-26T07:56:27;17.50;;;4.53;;
55728;SDS011;41633;39.720;2.910;2023-02-26T07:58:53;17.48;;;3.75;;
55728;SDS011;41633;39.720;2.910;2023-02-26T08:01:20;10.30;;;3.60;;
55728;SDS011;41633;39.720;2.910;2023-02-26T08:03:46;11.45;;;3.85;;
55728;SDS011;41633;39.720;2.910;2023-02-26T08:06:12;11.65;;;3.25;;
55728;SDS011;41633;39.720;2.910;2023-02-26T08:08:38;12.15;;;3.13;;
55728;SDS011;41633;39.720;2.910;2023-02-26T08:11:05;10.00;;;3.35;;
55728;SDS011;41633;39.720;2.910;2023-02-26T08:13:31;9.40;;;3.30;;
55728;SDS011;41633;39.720;2.910;2023-02-26T08:18:23;10.75;;;2.75;;
55728;SDS011;41633;39.720;2.910;2023-02-26T08:20:50;10.60;;;2.60;;
55728;SDS011;41633;39.720;2.910;2023-02-26T08:23:17;9.57;;;2.90;;
55728;SDS011;41633;39.720;2.910;2023-02-26T08:25:43;10.40;;;2.60;;
55728;SDS011;41633;39.720;2.910;2023-02-26T08:28:09;9.52;;;2.60;;
55728;SDS011;41633;39.720;2.910;2023-02-26T08:30:36;9.60;;;2.30;;
55728;SDS011;41633;39.720;2.910;2023-02-26T08:33:02;8.63;;;2.45;;
55728;SDS011;41633;39.720;2.910;2023-02-26T08:37:54;12.02;;;2.50;;
55728;SDS011;41633;39.720;2.910;2023-02-26T08:40:21;8.27;;;2.40;;
55728;SDS011;41633;39.720;2.910;2023-02-26T08:45:13;7.90;;;2.10;;
55728;SDS011;41633;39.720;2.910;2023-02-26T08:47:39;9.82;;;2.50;;
55728;SDS011;41633;39.720;2.910;2023-02-26T08:50:08;8.93;;;2.55;;
55728;SDS011;41633;39.720;2.910;2023-02-26T08:52:34;8.35;;;2.55;;
55728;SDS011;41633;39.720;2.910;2023-02-26T08:55:00;8.93;;;3.15;;
55728;SDS011;41633;39.720;2.910;2023-02-26T08:57:26;10.40;;;2.63;;
55728;SDS011;41633;39.720;2.910;2023-02-26T08:59:53;8.38;;;2.40;;
55728;SDS011;41633;39.720;2.910;2023-02-26T09:02:19;6.78;;;1.92;;
55728;SDS011;41633;39.720;2.910;2023-02-26T09:04:45;9.73;;;2.50;;
55728;SDS011;41633;39.720;2.910;2023-02-26T09:07:11;7.43;;;2.20;;
55728;SDS011;41633;39.720;2.910;2023-02-26T09:09:38;7.72;;;2.30;;
55728;SDS011;41633;39.720;2.910;2023-02-26T09:12:04;8.27;;;2.47;;
55728;SDS011;41633;39.720;2.910;2023-02-26T09:16:56;7.85;;;2.13;;
55728;SDS011;41633;39.720;2.910;2023-02-26T09:19:22;8.60;;;2.25;;
55728;SDS011;41633;39.720;2.910;2023-02-26T09:21:49;7.75;;;1.88;;
55728;SDS011;41633;39.720;2.910;2023-02-26T09:24:15;7.70;;;1.90;;
55728;SDS011;41633;39.720;2.910;2023-02-26T09:26:41;5.50;;;1.42;;
55728;SDS011;41633;39.720;2.910;2023-02-26T09:29:07;5.55;;;1.70;;
55728;SDS011;41633;39.720;2.910;2023-02-26T09:31:35;5.03;;;1.63;;
55728;SDS011;41633;39.720;2.910;2023-02-26T09:36:27;6.72;;;1.70;;
55728;SDS011;41633;39.720;2.910;2023-02-26T09:38:55;5.97;;;1.70;;
55728;SDS011;41633;39.720;2.910;2023-02-26T09:41:23;6.38;;;1.75;;
55728;SDS011;41633;39.720;2.910;2023-02-26T09:44:04;5.45;;;1.60;;
55728;SDS011;41633;39.720;2.910;2023-02-26T09:51:24;7.22;;;1.45;;
55728;SDS011;41633;39.720;2.910;2023-02-26T09:53:51;5.97;;;1.70;;
55728;SDS011;41633;39.720;2.910;2023-02-26T09:56:20;5.45;;;1.70;;
55728;SDS011;41633;39.720;2.910;2023-02-26T09:58:48;5.40;;;1.70;;
55728;SDS011;41633;39.720;2.910;2023-02-26T10:14:17;7.53;;;2.50;;
55728;SDS011;41633;39.720;2.910;2023-02-26T10:16:46;7.45;;;2.30;;
55728;SDS011;41633;39.720;2.910;2023-02-26T10:19:18;9.73;;;2.58;;
55728;SDS011;41633;39.720;2.910;2023-02-26T10:21:50;8.57;;;2.72;;
55728;SDS011;41633;39.720;2.910;2023-02-26T10:24:18;5.60;;;1.70;;
55728;SDS011;41633;39.720;2.910;2023-02-26T10:26:50;9.70;;;2.42;;
55728;SDS011;41633;39.720;2.910;2023-02-26T10:29:36;6.57;;;2.20;;
55728;SDS011;41633;39.720;2.910;2023-02-26T10:32:14;6.60;;;2.10;;
55728;SDS011;41633;39.720;2.910;2023-02-26T10:34:56;7.45;;;2.53;;
55728;SDS011;41633;39.720;2.910;2023-02-26T10:42:40;7.43;;;1.90;;
55728;SDS011;41633;39.720;2.910;2023-02-26T10:47:39;7.53;;;2.33;;
55728;SDS011;41633;39.720;2.910;2023-02-26T10:50:10;8.65;;;2.30;;
55728;SDS011;41633;39.720;2.910;2023-02-26T10:52:37;7.07;;;1.98;;
55728;SDS011;41633;39.720;2.910;2023-02-26T10:57:37;7.53;;;1.63;;
55728;SDS011;41633;39.720;2.910;2023-02-26T11:00:04;7.53;;;2.45;;
55728;SDS011;41633;39.720;2.910;2023-02-26T11:02:39;7.65;;;2.30;;
55728;SDS011;41633;39.720;2.910;2023-02-26T11:05:06;7.32;;;2.00;;
55728;SDS011;41633;39.720;2.910;2023-02-26T11:07:38;8.27;;;2.75;;
55728;SDS011;41633;39.720;2.910;2023-02-26T11:10:11;9.60;;;3.70;;
55728;SDS011;41633;39.720;2.910;2023-02-26T11:12:37;11.07;;;2.65;;
55728;SDS011;41633;39.720;2.910;2023-02-26T11:15:04;8.85;;;3.85;;
55728;SDS011;41633;39.720;2.910;2023-02-26T11:17:30;8.15;;;3.55;;
55728;SDS011;41633;39.720;2.910;2023-02-26T11:20:10;10.45;;;4.60;;
55728;SDS011;41633;39.720;2.910;2023-02-26T11:22:39;9.43;;;3.30;;
55728;SDS011;41633;39.720;2.910;2023-02-26T11:25:12;6.63;;;2.20;;
55728;SDS011;41633;39.720;2.910;2023-02-26T11:27:38;7.90;;;2.38;;
55728;SDS011;41633;39.720;2.910;2023-02-26T11:30:15;7.32;;;2.08;;
55728;SDS011;41633;39.720;2.910;2023-02-26T11:32:42;7.45;;;2.13;;
55728;SDS011;41633;39.720;2.910;2023-02-26T11:35:12;7.97;;;2.45;;
55728;SDS011;41633;39.720;2.910;2023-02-26T11:37:40;6.60;;;2.00;;
55728;SDS011;41633;39.720;2.910;2023-02-26T11:40:17;8.63;;;2.70;;
55728;SDS011;41633;39.720;2.910;2023-02-26T11:42:46;7.22;;;2.30;;
55728;SDS011;41633;39.720;2.910;2023-02-26T11:45:13;5.47;;;1.60;;
55728;SDS011;41633;39.720;2.910;2023-02-26T11:47:41;7.22;;;2.17;;
55728;SDS011;41633;39.720;2.910;2023-02-26T11:50:15;5.95;;;2.15;;
55728;SDS011;41633;39.720;2.910;2023-02-26T11:52:44;7.53;;;2.00;;
55728;SDS011;41633;39.720;2.910;2023-02-26T11:55:18;7.78;;;2.60;;
55728;SDS011;41633;39.720;2.910;2023-02-26T11:57:45;7.40;;;2.78;;
55728;SDS011;41633;39.720;2.910;2023-02-26T12:00:39;7.45;;;2.28;;
55728;SDS011;41633;39.720;2.910;2023-02-26T12:05:32;6.78;;;1.95;;
55728;SDS011;41633;39.720;2.910;2023-02-26T12:07:58;5.28;;;1.52;;
55728;SDS011;41633;39.720;2.910;2023-02-26T12:10:29;5.82;;;1.75;;
55728;SDS011;41633;39.720;2.910;2023-02-26T12:13:03;7.32;;;1.90;;
55728;SDS011;41633;39.720;2.910;2023-02-26T12:20:53;5.72;;;1.50;;
55728;SDS011;41633;39.720;2.910;2023-02-26T12:26:17;10.13;;;4.82;;
55728;SDS011;41633;39.720;2.910;2023-02-26T12:54:47;7.78;;;2.75;;
55728;SDS011;41633;39.720;2.910;2023-02-26T13:12:41;8.60;;;3.53;;
55728;SDS011;41633;39.720;2.910;2023-02-26T13:18:10;11.35;;;5.68;;
55728;SDS011;41633;39.720;2.910;2023-02-26T13:20:45;12.52;;;6.53;;
55728;SDS011;41633;39.720;2.910;2023-02-26T13:23:16;12.95;;;8.10;;
55728;SDS011;41633;39.720;2.910;2023-02-26T13:25:52;11.80;;;6.30;;
55728;SDS011;41633;39.720;2.910;2023-02-26T13:28:35;10.40;;;4.97;;
55728;SDS011;41633;39.720;2.910;2023-02-26T13:31:03;8.15;;;3.53;;
55728;SDS011;41633;39.720;2.910;2023-02-26T13:33:30;9.95;;;4.40;;
55728;SDS011;41633;39.720;2.910;2023-02-26T13:35:58;13.13;;;5.82;;
55728;SDS011;41633;39.720;2.910;2023-02-26T13:38:37;12.05;;;4.55;;
55728;SDS011;41633;39.720;2.910;2023-02-26T13:41:10;14.75;;;7.05;;
55728;SDS011;41633;39.720;2.910;2023-02-26T13:43:54;11.55;;;4.35;;
55728;SDS011;41633;39.720;2.910;2023-02-26T13:46:29;8.05;;;2.70;;
55728;SDS011;41633;39.720;2.910;2023-02-26T13:51:43;10.45;;;4.47;;
55728;SDS011;41633;39.720;2.910;2023-02-26T13:59:23;8.98;;;2.60;;
55728;SDS011;41633;39.720;2.910;2023-02-26T14:01:53;7.75;;;2.20;;
55728;SDS011;41633;39.720;2.910;2023-02-26T14:07:08;7.30;;;2.40;;
55728;SDS011;41633;39.720;2.910;2023-02-26T14:09:36;9.05;;;3.10;;
55728;SDS011;41633;39.720;2.910;2023-02-26T14:14:41;9.20;;;3.63;;
55728;SDS011;41633;39.720;2.910;2023-02-26T14:24:52;6.38;;;2.10;;
55728;SDS011;41633;39.720;2.910;2023-02-26T14:27:21;8.85;;;2.40;;
55728;SDS011;41633;39.720;2.910;2023-02-26T14:32:31;7.45;;;2.45;;
55728;SDS011;41633;39.720;2.910;2023-02-26T14:35:05;8.55;;;2.58;;
55728;SDS011;41633;39.720;2.910;2023-02-26T14:42:55;8.85;;;2.20;;
55728;SDS011;41633;39.720;2.910;2023-02-26T14:47:51;6.50;;;2.08;;
55728;SDS011;41633;39.720;2.910;2023-02-26T14:50:19;6.60;;;1.90;;
55728;SDS011;41633;39.720;2.910;2023-02-26T14:58:18;8.50;;;2.55;;
55728;SDS011;41633;39.720;2.910;2023-02-26T15:00:52;7.72;;;2.40;;
55728;SDS011;41633;39.720;2.910;2023-02-26T15:06:04;9.82;;;2.60;;
55728;SDS011;41633;39.720;2.910;2023-02-26T15:08:41;7.07;;;2.15;;
55728;SDS011;41633;39.720;2.910;2023-02-26T15:11:20;8.63;;;2.38;;
55728;SDS011;41633;39.720;2.910;2023-02-26T15:23:53;8.23;;;2.25;;
55728;SDS011;41633;39.720;2.910;2023-02-26T15:26:44;7.78;;;2.10;;
55728;SDS011;41633;39.720;2.910;2023-02-26T15:29:07;7.15;;;1.70;;
55728;SDS011;41633;39.720;2.910;2023-02-26T15:31:36;10.43;;;2.25;;
55728;SDS011;41633;39.720;2.910;2023-02-26T15:34:02;6.70;;;1.60;;
55728;SDS011;41633;39.720;2.910;2023-02-26T15:38:58;7.38;;;2.05;;
55728;SDS011;41633;39.720;2.910;2023-02-26T15:41:26;6.85;;;2.15;;
55728;SDS011;41633;39.720;2.910;2023-02-26T15:43:54;7.45;;;1.80;;
55728;SDS011;41633;39.720;2.910;2023-02-26T15:46:22;7.63;;;2.28;;
55728;SDS011;41633;39.720;2.910;2023-02-26T15:48:51;7.45;;;2.10;;
55728;SDS011;41633;39.720;2.910;2023-02-26T15:51:19;6.07;;;2.08;;
55728;SDS011;41633;39.720;2.910;2023-02-26T15:56:13;7.57;;;2.47;;
55728;SDS011;41633;39.720;2.910;2023-02-26T15:58:45;8.45;;;2.28;;
55728;SDS011;41633;39.720;2.910;2023-02-26T16:01:16;8.35;;;2.35;;
55728;SDS011;41633;39.720;2.910;2023-02-26T16:03:44;9.00;;;2.92;;
55728;SDS011;41633;39.720;2.910;2023-02-26T16:06:11;6.88;;;2.30;;
55728;SDS011;41633;39.720;2.910;2023-02-26T16:08:38;8.65;;;2.90;;
55728;SDS011;41633;39.720;2.910;2023-02-26T16:11:04;9.20;;;3.10;;
55728;SDS011;41633;39.720;2.910;2023-02-26T16:13:32;8.50;;;3.08;;
55728;SDS011;41633;39.720;2.910;2023-02-26T16:16:02;9.50;;;3.05;;
55728;SDS011;41633;39.720;2.910;2023-02-26T16:18:29;8.57;;;2.47;;
55728;SDS011;41633;39.720;2.910;2023-02-26T16:20:57;9.48;;;3.45;;
55728;SDS011;41633;39.720;2.910;2023-02-26T16:23:58;10.25;;;4.07;;
55728;SDS011;41633;39.720;2.910;2023-02-26T16:26:22;11.02;;;3.90;;
55728;SDS011;41633;39.720;2.910;2023-02-26T16:28:50;8.93;;;3.70;;
55728;SDS011;41633;39.720;2.910;2023-02-26T16:31:22;8.88;;;3.50;;
55728;SDS011;41633;39.720;2.910;2023-02-26T16:33:54;11.18;;;3.75;;
55728;SDS011;41633;39.720;2.910;2023-02-26T16:36:23;10.52;;;4.10;;
55728;SDS011;41633;39.720;2.910;2023-02-26T16:38:58;9.55;;;3.33;;
55728;SDS011;41633;39.720;2.910;2023-02-26T16:41:25;10.52;;;3.45;;
55728;SDS011;41633;39.720;2.910;2023-02-26T16:43:53;10.52;;;3.70;;
55728;SDS011;41633;39.720;2.910;2023-02-26T16:48:54;7.57;;;3.00;;
55728;SDS011;41633;39.720;2.910;2023-02-26T16:51:23;7.82;;;3.13;;
55728;SDS011;41633;39.720;2.910;2023-02-26T16:56:21;10.45;;;4.13;;
55728;SDS011;41633;39.720;2.910;2023-02-26T16:59:04;9.50;;;4.18;;
55728;SDS011;41633;39.720;2.910;2023-02-26T17:01:36;10.75;;;4.72;;
55728;SDS011;41633;39.720;2.910;2023-02-26T17:04:03;12.10;;;5.13;;
55728;SDS011;41633;39.720;2.910;2023-02-26T17:06:30;12.48;;;4.13;;
55728;SDS011;41633;39.720;2.910;2023-02-26T17:09:00;11.38;;;3.65;;
55728;SDS011;41633;39.720;2.910;2023-02-26T17:16:29;12.10;;;4.70;;
55728;SDS011;41633;39.720;2.910;2023-02-26T17:18:55;9.75;;;4.20;;
55728;SDS011;41633;39.720;2.910;2023-02-26T17:21:21;12.93;;;5.20;;
55728;SDS011;41633;39.720;2.910;2023-02-26T17:23:48;12.75;;;5.57;;
55728;SDS011;41633;39.720;2.910;2023-02-26T17:26:14;13.77;;;5.78;;
55728;SDS011;41633;39.720;2.910;2023-02-26T17:28:41;11.55;;;4.50;;
55728;SDS011;41633;39.720;2.910;2023-02-26T17:31:07;11.25;;;4.47;;
55728;SDS011;41633;39.720;2.910;2023-02-26T17:33:37;9.05;;;3.47;;
55728;SDS011;41633;39.720;2.910;2023-02-26T17:36:05;8.82;;;3.53;;
55728;SDS011;41633;39.720;2.910;2023-02-26T17:38:31;9.02;;;3.72;;
55728;SDS011;41633;39.720;2.910;2023-02-26T17:40:57;8.68;;;3.55;;
55728;SDS011;41633;39.720;2.910;2023-02-26T17:43:24;10.52;;;4.13;;
55728;SDS011;41633;39.720;2.910;2023-02-26T17:45:52;10.13;;;4.32;;
55728;SDS011;41633;39.720;2.910;2023-02-26T17:48:18;10.77;;;3.90;;
55728;SDS011;41633;39.720;2.910;2023-02-26T17:53:17;9.75;;;3.85;;
55728;SDS011;41633;39.720;2.910;2023-02-26T17:55:44;9.30;;;3.90;;
55728;SDS011;41633;39.720;2.910;2023-02-26T17:58:32;15.18;;;10.85;;
55728;SDS011;41633;39.720;2.910;2023-02-26T18:01:00;25.10;;;15.25;;
55728;SDS011;41633;39.720;2.910;2023-02-26T18:03:28;20.90;;;13.63;;
55728;SDS011;41633;39.720;2.910;2023-02-26T18:08:28;15.00;;;8.10;;
55728;SDS011;41633;39.720;2.910;2023-02-26T18:10:54;14.90;;;7.18;;
55728;SDS011;41633;39.720;2.910;2023-02-26T18:13:21;14.10;;;5.85;;
55728;SDS011;41633;39.720;2.910;2023-02-26T18:15:48;17.15;;;7.20;;
55728;SDS011;41633;39.720;2.910;2023-02-26T18:18:15;21.15;;;7.95;;
55728;SDS011;41633;39.720;2.910;2023-02-26T18:20:41;19.88;;;8.55;;
55728;SDS011;41633;39.720;2.910;2023-02-26T18:23:08;16.38;;;7.13;;
55728;SDS011;41633;39.720;2.910;2023-02-26T18:25:37;19.50;;;9.07;;
55728;SDS011;41633;39.720;2.910;2023-02-26T18:28:04;17.60;;;8.32;;
55728;SDS011;41633;39.720;2.910;2023-02-26T18:30:32;20.77;;;11.23;;
55728;SDS011;41633;39.720;2.910;2023-02-26T18:32:58;22.30;;;11.57;;
55728;SDS011;41633;39.720;2.910;2023-02-26T18:35:25;20.60;;;10.50;;
55728;SDS011;41633;39.720;2.910;2023-02-26T18:37:52;19.17;;;9.18;;
55728;SDS011;41633;39.720;2.910;2023-02-26T18:40:23;18.35;;;8.95;;
55728;SDS011;41633;39.720;2.910;2023-02-26T18:42:49;16.98;;;8.13;;